createdAt,value
2018-09-25T00:01:39.612Z,103026.70
2018-09-25T00:04:13.225Z,103037.00
2018-09-25T00:06:47.108Z,103027.70
2018-09-25T00:09:20.830Z,103029.56
2018-09-25T00:11:54.436Z,103028.27
2018-09-25T00:14:28.318Z,103021.81
2018-09-25T00:17:02.099Z,103025.83
2018-09-25T00:19:35.833Z,103026.69
2018-09-25T00:22:10.261Z,103026.59
2018-09-25T00:24:44.180Z,103030.94
2018-09-25T00:27:17.976Z,103030.89
2018-09-25T00:29:51.875Z,103029.33
2018-09-25T00:32:25.529Z,103024.36
2018-09-25T00:34:59.346Z,103026.48
2018-09-25T00:37:33.065Z,103039.17
2018-09-25T00:40:06.810Z,103041.31
2018-09-25T00:42:40.573Z,103049.68
2018-09-25T00:45:14.339Z,103044.64
2018-09-25T00:47:48.090Z,103041.55
2018-09-25T00:50:22.255Z,103041.47
2018-09-25T00:52:56.553Z,103044.19
2018-09-25T00:55:30.241Z,103043.93
2018-09-25T00:58:03.890Z,103042.67
2018-09-25T01:00:37.706Z,103043.23
2018-09-25T01:03:11.912Z,103044.69
2018-09-25T01:05:46.364Z,103051.33
2018-09-25T01:08:20.865Z,103051.23
2018-09-25T01:10:54.547Z,103057.33
2018-09-25T01:13:28.310Z,103055.16
2018-09-25T01:16:02.107Z,103054.39
2018-09-25T01:18:36.039Z,103054.79
2018-09-25T01:21:10.799Z,103054.77
2018-09-25T01:23:44.597Z,103050.27
2018-09-25T01:26:18.541Z,103052.90
2018-09-25T01:28:53.614Z,103046.91
2018-09-25T01:31:27.296Z,103043.06
2018-09-25T01:34:01.166Z,103043.56
2018-09-25T01:36:34.911Z,103037.00
2018-09-25T01:39:08.786Z,103042.16
2018-09-25T01:41:42.678Z,103048.23
2018-09-25T01:44:16.509Z,103043.92
2018-09-25T01:46:50.329Z,103043.54
2018-09-25T01:49:25.501Z,103046.17
2018-09-25T01:51:59.359Z,103044.10
2018-09-25T01:54:33.458Z,103053.55
2018-09-25T01:57:07.274Z,103055.78
2018-09-25T01:59:41.184Z,103051.27
2018-09-25T02:02:15.731Z,103044.27
2018-09-25T02:04:50.686Z,103044.84
2018-09-25T02:07:24.550Z,103047.09
2018-09-25T02:09:58.281Z,103046.63
2018-09-25T02:12:32.107Z,103050.55
2018-09-25T02:15:05.836Z,103049.70
2018-09-25T02:17:39.579Z,103049.89
2018-09-25T02:20:13.420Z,103049.14
2018-09-25T02:22:47.320Z,103051.11
2018-09-25T02:25:21.719Z,103052.05
2018-09-25T02:27:55.661Z,103056.84
2018-09-25T02:30:30.434Z,103053.72
2018-09-25T02:33:04.122Z,103063.24
2018-09-25T02:35:39.363Z,103063.33
2018-09-25T02:38:13.255Z,103065.30
2018-09-25T02:40:47.105Z,103064.84
2018-09-25T02:43:21.606Z,103072.78
2018-09-25T02:45:56.742Z,103066.44
2018-09-25T02:48:30.631Z,103059.78
2018-09-25T02:51:05.276Z,103064.19
2018-09-25T02:53:39.118Z,103064.07
2018-09-25T02:56:12.786Z,103053.67
2018-09-25T03:05:59.294Z,103055.27
2018-09-25T03:08:33.156Z,103057.73
2018-09-25T03:11:08.551Z,103054.19
2018-09-25T03:13:42.988Z,103059.90
2018-09-25T03:16:16.875Z,103057.29
2018-09-25T03:18:50.688Z,103063.17
2018-09-25T03:21:25.562Z,103057.20
2018-09-25T03:23:59.717Z,103054.77
2018-09-25T03:26:33.271Z,103052.80
2018-09-25T03:29:07.142Z,103052.88
2018-09-25T03:31:41.302Z,103058.70
2018-09-25T03:34:15.184Z,103052.62
2018-09-25T03:36:48.890Z,103056.06
2018-09-25T03:39:23.624Z,103054.75
2018-09-25T03:41:57.462Z,103057.47
2018-09-25T03:44:32.009Z,103063.37
2018-09-25T03:47:05.835Z,103065.04
2018-09-25T03:49:39.650Z,103064.84
2018-09-25T03:52:14.504Z,103067.09
2018-09-25T03:54:50.650Z,103067.37
2018-09-25T03:57:24.630Z,103068.34
2018-09-25T03:59:59.359Z,103079.03
2018-09-25T04:02:33.132Z,103075.16
2018-09-25T04:05:07.011Z,103073.65
2018-09-25T04:07:40.826Z,103076.63
2018-09-25T04:10:14.876Z,103081.56
2018-09-25T04:12:48.750Z,103081.95
2018-09-25T04:15:22.602Z,103076.91
2018-09-25T04:17:56.498Z,103078.37
2018-09-25T04:20:30.337Z,103080.98
2018-09-25T04:23:04.066Z,103076.14
2018-09-25T04:25:37.873Z,103075.59
2018-09-25T04:28:11.631Z,103078.19
2018-09-25T04:30:45.572Z,103072.30
2018-09-25T04:33:20.014Z,103079.84
2018-09-25T04:35:53.799Z,103088.95
2018-09-25T04:38:27.657Z,103083.77
2018-09-25T04:41:01.532Z,103091.42
2018-09-25T04:43:35.900Z,103087.23
2018-09-25T04:46:09.739Z,103087.63
2018-09-25T04:48:43.331Z,103090.48
2018-09-25T04:51:17.200Z,103096.34
2018-09-25T04:53:51.007Z,103092.34
2018-09-25T04:56:24.662Z,103091.30
2018-09-25T04:58:58.595Z,103087.20
2018-09-25T05:01:32.325Z,103085.13
2018-09-25T05:04:06.855Z,103079.94
2018-09-25T05:06:40.800Z,103076.55
2018-09-25T05:09:14.702Z,103079.12
2018-09-25T05:11:48.527Z,103077.91
2018-09-25T05:14:22.563Z,103079.03
2018-09-25T05:16:56.357Z,103086.97
2018-09-25T05:19:30.138Z,103081.42
2018-09-25T05:22:04.020Z,103085.06
2018-09-25T05:24:38.466Z,103091.08
2018-09-25T05:27:12.439Z,103091.34
2018-09-25T05:29:46.145Z,103094.81
2018-09-25T05:32:19.936Z,103102.80
2018-09-25T05:34:53.855Z,103099.99
2018-09-25T05:37:28.070Z,103096.52
2018-09-25T05:40:01.802Z,103098.28
2018-09-25T05:42:35.786Z,103097.02
2018-09-25T05:45:09.744Z,103103.11
2018-09-25T05:47:43.483Z,103107.97
2018-09-25T05:50:17.874Z,103109.51
2018-09-25T05:52:51.819Z,103110.45
2018-09-25T05:55:25.512Z,103112.71
2018-09-25T05:57:59.243Z,103117.98
2018-09-25T06:00:33.119Z,103123.17
2018-09-25T06:03:08.155Z,103127.36
2018-09-25T06:05:42.475Z,103129.48
2018-09-25T06:08:16.220Z,103132.05
2018-09-25T06:10:49.982Z,103124.73
2018-09-25T06:13:23.727Z,103129.64
2018-09-25T06:15:58.554Z,103122.76
2018-09-25T06:18:32.322Z,103121.86
2018-09-25T06:21:06.738Z,103125.27
2018-09-25T06:23:40.430Z,103122.59
2018-09-25T06:26:14.253Z,103123.62
2018-09-25T06:28:48.209Z,103127.77
2018-09-25T06:31:21.983Z,103131.33
2018-09-25T06:33:55.883Z,103133.86
2018-09-25T06:36:29.643Z,103141.07
2018-09-25T06:39:03.599Z,103141.07
2018-09-25T06:41:37.422Z,103138.25
2018-09-25T06:44:11.212Z,103143.58
2018-09-25T06:46:45.915Z,103146.92
2018-09-25T06:49:19.843Z,103142.50
2018-09-25T06:51:54.158Z,103144.80
2018-09-25T06:54:27.835Z,103145.98
2018-09-25T06:57:01.591Z,103154.83
2018-09-25T06:59:35.324Z,103160.03
2018-09-25T07:02:09.148Z,103156.91
2018-09-25T07:04:43.123Z,103156.56
2018-09-25T07:07:17.083Z,103156.41
2018-09-25T07:09:50.986Z,103162.30
2018-09-25T07:12:24.890Z,103163.36
2018-09-25T07:14:58.739Z,103163.83
2018-09-25T07:17:32.649Z,103160.86
2018-09-25T07:20:06.247Z,103162.88
2018-09-25T07:22:40.189Z,103165.13
2018-09-25T07:25:13.915Z,103173.12
2018-09-25T07:27:48.401Z,103177.17
2018-09-25T07:30:22.974Z,103181.45
2018-09-25T07:32:57.487Z,103189.28
2018-09-25T07:35:31.211Z,103197.19
2018-09-25T07:38:05.236Z,103197.89
2018-09-25T07:40:38.986Z,103202.88
2018-09-25T07:43:12.860Z,103201.45
2018-09-25T07:45:46.651Z,103205.43
2018-09-25T07:48:20.797Z,103206.75
2018-09-25T07:50:54.626Z,103207.28
2018-09-25T07:53:28.543Z,103211.23
2018-09-25T07:56:02.263Z,103207.94
2018-09-25T07:58:36.140Z,103210.38
2018-09-25T08:01:09.913Z,103216.23
2018-09-25T08:03:43.849Z,103214.61
2018-09-25T08:06:17.424Z,103217.13
2018-09-25T08:08:51.716Z,103212.95
2018-09-25T08:11:25.539Z,103217.38
2018-09-25T08:13:59.355Z,103226.97
2018-09-25T08:16:33.164Z,103222.19
2018-09-25T08:19:07.031Z,103219.58
2018-09-25T08:21:40.851Z,103224.13
2018-09-25T08:24:14.540Z,103228.44
2018-09-25T08:26:48.331Z,103227.01
2018-09-25T08:29:22.129Z,103228.70
2018-09-25T08:31:55.914Z,103231.70
2018-09-25T08:34:29.614Z,103229.44
2018-09-25T08:37:03.431Z,103227.23
2018-09-25T08:39:37.253Z,103225.69
2018-09-25T08:42:10.927Z,103226.84
2018-09-25T08:44:45.099Z,103225.05
2018-09-25T08:47:18.987Z,103234.97
2018-09-25T08:49:52.668Z,103239.78
2018-09-25T08:52:26.418Z,103241.05
2018-09-25T08:55:00.184Z,103243.59
2018-09-25T08:57:33.940Z,103239.59
2018-09-25T09:00:07.744Z,103240.21
2018-09-25T09:02:41.396Z,103238.15
2018-09-25T09:05:15.295Z,103245.83
2018-09-25T09:07:49.142Z,103241.77
2018-09-25T09:10:22.886Z,103248.34
2018-09-25T09:12:56.661Z,103254.17
2018-09-25T09:15:30.555Z,103252.91
2018-09-25T09:18:04.443Z,103255.60
2018-09-25T09:20:38.239Z,103256.66
2018-09-25T09:23:12.024Z,103253.37
2018-09-25T09:25:45.594Z,103253.10
2018-09-25T09:28:19.508Z,103256.80
2018-09-25T09:30:53.247Z,103258.13
2018-09-25T09:33:27.043Z,103270.25
2018-09-25T09:36:00.786Z,103269.86
2018-09-25T09:38:34.481Z,103267.58
2018-09-25T09:41:08.298Z,103270.70
2018-09-25T09:43:42.246Z,103271.98
2018-09-25T09:46:15.986Z,103275.27
2018-09-25T09:48:49.782Z,103274.73
2018-09-25T09:51:23.633Z,103281.04
2018-09-25T09:53:57.396Z,103277.04
2018-09-25T09:56:31.170Z,103282.74
2018-09-25T09:59:04.891Z,103286.51
2018-09-25T10:03:03.048Z,103288.46
2018-09-25T10:05:36.924Z,103281.38
2018-09-25T10:08:10.655Z,103283.00
2018-09-25T10:10:44.493Z,103283.62
2018-09-25T10:13:18.396Z,103275.86
2018-09-25T10:15:52.403Z,103276.06
2018-09-25T10:18:26.314Z,103278.56
2018-09-25T10:21:00.178Z,103278.20
2018-09-25T10:23:33.856Z,103273.68
2018-09-25T10:26:07.725Z,103273.31
2018-09-25T10:28:41.522Z,103269.34
2018-09-25T10:31:16.599Z,103262.67
2018-09-25T10:33:50.496Z,103259.65
2018-09-25T10:36:24.335Z,103262.44
2018-09-25T10:38:58.232Z,103257.70
2018-09-25T10:41:32.020Z,103262.38
2018-09-25T10:44:05.771Z,103271.36
2018-09-25T10:46:39.597Z,103263.67
2018-09-25T10:49:13.328Z,103274.30
2018-09-25T10:51:46.995Z,103267.70
2018-09-25T10:54:20.751Z,103267.73
2018-09-25T10:56:54.451Z,103271.80
2018-09-25T10:59:28.274Z,103263.46
2018-09-25T11:02:02.019Z,103261.36
2018-09-25T11:04:35.667Z,103259.45
2018-09-25T11:07:09.443Z,103255.55
2018-09-25T11:09:43.254Z,103255.59
2018-09-25T11:12:17.070Z,103255.30
2018-09-25T11:14:50.843Z,103250.55
2018-09-25T11:17:24.561Z,103257.60
2018-09-25T11:19:58.411Z,103258.76
2018-09-25T11:22:32.918Z,103254.89
2018-09-25T11:25:07.291Z,103261.85
2018-09-25T11:27:40.999Z,103266.28
2018-09-25T11:30:14.744Z,103271.15
2018-09-25T11:32:48.577Z,103261.17
2018-09-25T11:35:22.330Z,103257.48
2018-09-25T11:37:56.147Z,103255.52
2018-09-25T11:40:29.961Z,103248.02
2018-09-25T11:43:04.066Z,103243.46
2018-09-25T11:45:37.835Z,103242.99
2018-09-25T11:48:11.483Z,103249.17
2018-09-25T11:50:45.253Z,103241.50
2018-09-25T11:53:18.775Z,103236.30
2018-09-25T11:55:52.861Z,103235.14
2018-09-25T11:58:26.816Z,103232.48
2018-09-25T12:01:00.603Z,103229.47
2018-09-25T12:03:34.491Z,103227.42
2018-09-25T12:06:08.382Z,103215.70
2018-09-25T12:08:42.276Z,103218.28
2018-09-25T12:11:16.203Z,103212.73
2018-09-25T12:13:49.962Z,103214.92
2018-09-25T12:16:23.575Z,103206.26
2018-09-25T12:18:57.232Z,103217.27
2018-09-25T12:21:31.208Z,103207.09
2018-09-25T12:24:05.016Z,103196.89
2018-09-25T12:26:38.794Z,103201.26
2018-09-25T12:29:12.744Z,103204.77
2018-09-25T12:31:46.615Z,103196.09
2018-09-25T12:34:20.480Z,103194.90
2018-09-25T12:36:54.283Z,103197.23
2018-09-25T12:39:28.001Z,103196.56
2018-09-25T12:42:01.620Z,103196.27
2018-09-25T12:44:35.624Z,103196.59
2018-09-25T12:47:09.669Z,103186.32
2018-09-25T12:49:43.516Z,103194.36
2018-09-25T12:52:17.345Z,103185.39
2018-09-25T12:54:51.167Z,103184.88
2018-09-25T12:57:24.895Z,103179.89
2018-09-25T12:59:58.665Z,103180.38
2018-09-25T13:02:32.616Z,103183.39
2018-09-25T13:05:06.463Z,103177.23
2018-09-25T13:07:40.406Z,103179.20
2018-09-25T13:10:14.214Z,103181.38
2018-09-25T13:12:48.011Z,103178.36
2018-09-25T13:15:21.721Z,103167.85
2018-09-25T13:17:56.290Z,103167.23
2018-09-25T13:20:30.060Z,103167.56
2018-09-25T13:23:04.013Z,103157.61
2018-09-25T13:25:37.780Z,103151.78
2018-09-25T13:28:11.615Z,103155.25
2018-09-25T13:30:45.235Z,103151.09
2018-09-25T13:33:19.171Z,103146.31
2018-09-25T13:35:52.763Z,103145.68
2018-09-25T13:38:26.435Z,103149.02
2018-09-25T13:41:00.523Z,103141.75
2018-09-25T13:43:34.440Z,103148.07
2018-09-25T13:46:08.222Z,103135.41
2018-09-25T13:48:42.017Z,103137.07
2018-09-25T13:51:16.027Z,103127.05
2018-09-25T13:53:49.735Z,103119.69
2018-09-25T13:56:23.579Z,103120.36
2018-09-25T13:58:58.660Z,103124.87
2018-09-25T14:01:32.414Z,103120.02
2018-09-25T14:04:06.190Z,103117.55
2018-09-25T14:06:39.966Z,103117.20
2018-09-25T14:09:15.229Z,103115.05
2018-09-25T14:11:49.067Z,103115.37
2018-09-25T14:14:22.802Z,103108.37
2018-09-25T14:16:56.563Z,103112.17
2018-09-25T14:19:30.710Z,103104.71
2018-09-25T14:22:04.649Z,103103.43
2018-09-25T14:24:38.321Z,103100.78
2018-09-25T14:27:12.175Z,103106.29
2018-09-25T14:29:45.980Z,103103.97
2018-09-25T14:32:19.826Z,103103.48
2018-09-25T14:34:54.300Z,103100.27
2018-09-25T14:37:28.297Z,103094.95
2018-09-25T14:40:01.951Z,103093.08
2018-09-25T14:42:35.698Z,103095.62
2018-09-25T14:45:09.607Z,103092.38
2018-09-25T14:47:43.604Z,103085.23
2018-09-25T14:50:17.530Z,103083.05
2018-09-25T14:52:53.590Z,103077.05
2018-09-25T14:55:28.002Z,103080.41
2018-09-25T14:58:02.359Z,103080.48
2018-09-25T15:00:36.072Z,103083.16
2018-09-25T15:03:09.914Z,103081.59
2018-09-25T15:05:43.848Z,103082.00
2018-09-25T15:08:17.607Z,103078.53
2018-09-25T15:10:52.020Z,103076.33
2018-09-25T15:13:25.932Z,103078.69
2018-09-25T15:16:00.444Z,103073.98
2018-09-25T15:18:35.795Z,103064.94
2018-09-25T15:21:10.992Z,103069.58
2018-09-25T15:23:45.578Z,103072.90
2018-09-25T15:26:19.397Z,103077.11
2018-09-25T15:28:53.000Z,103073.50
2018-09-25T15:31:33.228Z,103080.21
2018-09-25T15:34:06.854Z,103075.44
2018-09-25T15:36:40.617Z,103077.64
2018-09-25T15:39:14.995Z,103076.97
2018-09-25T15:41:48.858Z,103072.44
2018-09-25T15:44:22.557Z,103066.28
2018-09-25T15:46:56.519Z,103068.61
2018-09-25T15:49:30.452Z,103072.24
2018-09-25T15:52:04.219Z,103066.53
2018-09-25T15:54:38.241Z,103064.14
2018-09-25T15:57:12.018Z,103065.45
2018-09-25T15:59:45.913Z,103069.05
2018-09-25T16:02:20.895Z,103071.48
2018-09-25T16:04:54.706Z,103069.23
2018-09-25T16:07:28.662Z,103072.38
2018-09-25T16:10:02.603Z,103065.52
2018-09-25T16:12:37.730Z,103068.62
2018-09-25T16:15:11.499Z,103081.05
2018-09-25T16:17:45.200Z,103079.35
2018-09-25T16:20:19.058Z,103086.95
2018-09-25T16:22:52.791Z,103089.57
2018-09-25T16:25:26.679Z,103091.74
2018-09-25T16:28:00.546Z,103097.55
2018-09-25T16:30:35.139Z,103088.88
2018-09-25T16:33:08.958Z,103090.05
2018-09-25T16:35:43.522Z,103079.16
2018-09-25T16:38:17.287Z,103076.70
2018-09-25T16:40:51.182Z,103076.09
2018-09-25T16:43:25.070Z,103073.36
2018-09-25T16:45:58.805Z,103076.16
2018-09-25T16:48:32.516Z,103066.73
2018-09-25T16:51:06.220Z,103069.94
2018-09-25T16:53:40.045Z,103069.84
2018-09-25T16:56:14.126Z,103071.47
2018-09-25T16:58:47.816Z,103064.85
2018-09-25T17:01:21.567Z,103066.00
2018-09-25T17:03:55.408Z,103066.16
2018-09-25T17:06:29.281Z,103055.20
2018-09-25T17:09:03.127Z,103056.23
2018-09-25T17:11:36.988Z,103050.52
2018-09-25T17:14:11.195Z,103049.63
2018-09-25T17:16:45.002Z,103053.56
2018-09-25T17:19:18.811Z,103062.08
2018-09-25T17:21:52.786Z,103065.22
2018-09-25T17:24:26.682Z,103062.22
2018-09-25T17:27:00.393Z,103067.34
2018-09-25T17:29:34.004Z,103056.75
2018-09-25T17:32:07.735Z,103063.50
2018-09-25T17:34:41.597Z,103066.54
2018-09-25T17:37:15.482Z,103067.80
2018-09-25T17:39:49.278Z,103064.20
2018-09-25T17:42:23.063Z,103061.28
2018-09-25T17:44:58.729Z,103070.59
2018-09-25T17:47:32.721Z,103072.34
2018-09-25T17:50:06.410Z,103068.78
2018-09-25T17:52:40.221Z,103071.90
2018-09-25T17:55:13.967Z,103071.20
2018-09-25T17:57:47.757Z,103076.16
2018-09-25T18:00:21.593Z,103085.21
2018-09-25T18:02:55.530Z,103085.59
2018-09-25T18:05:29.395Z,103092.16
2018-09-25T18:08:03.238Z,103093.50
2018-09-25T18:10:36.801Z,103093.88
2018-09-25T18:13:10.663Z,103087.73
2018-09-25T18:15:44.487Z,103084.28
2018-09-25T18:18:18.287Z,103095.55
2018-09-25T18:20:52.000Z,103091.77
2018-09-25T18:23:26.520Z,103087.77
2018-09-25T18:26:00.614Z,103086.56
2018-09-25T18:28:35.066Z,103076.98
2018-09-25T18:31:08.881Z,103079.97
2018-09-25T18:33:43.509Z,103070.52
2018-09-25T18:36:17.194Z,103070.17
2018-09-25T18:38:50.930Z,103070.66
2018-09-25T18:41:25.398Z,103071.03
2018-09-25T18:43:59.078Z,103076.91
2018-09-25T18:46:32.851Z,103068.89
2018-09-25T18:49:06.597Z,103070.09
2018-09-25T18:51:40.595Z,103072.73
2018-09-25T18:54:14.487Z,103076.92
2018-09-25T18:56:48.283Z,103089.88
2018-09-25T18:59:22.095Z,103090.48
2018-09-25T19:01:55.843Z,103082.92
2018-09-25T19:04:29.495Z,103076.80
2018-09-25T19:07:03.333Z,103061.48
2018-09-25T19:09:37.107Z,103057.98
2018-09-25T19:12:11.863Z,103057.27
2018-09-25T19:14:45.494Z,103057.50
2018-09-25T19:17:19.397Z,103056.88
2018-09-25T19:19:53.133Z,103058.68
2018-09-25T19:22:27.585Z,103063.02
2018-09-25T19:25:02.271Z,103059.07
2018-09-25T19:27:36.094Z,103067.95
2018-09-25T19:30:10.187Z,103065.31
2018-09-25T19:32:44.190Z,103067.20
2018-09-25T19:35:18.130Z,103069.25
2018-09-25T19:37:51.889Z,103064.79
2018-09-25T19:40:25.672Z,103061.06
2018-09-25T19:42:59.576Z,103063.44
2018-09-25T19:45:33.342Z,103062.61
2018-09-25T19:48:07.451Z,103058.79
2018-09-25T19:50:41.295Z,103053.77
2018-09-25T19:53:15.682Z,103059.86
2018-09-25T19:55:49.526Z,103057.47
2018-09-25T19:58:23.397Z,103055.16
2018-09-25T20:00:57.177Z,103045.10
2018-09-25T20:03:31.086Z,103037.05
2018-09-25T20:06:05.000Z,103028.78
2018-09-25T20:08:38.717Z,103025.91
2018-09-25T20:11:13.583Z,103027.95
2018-09-25T20:13:47.407Z,103032.36
2018-09-25T20:16:21.334Z,103042.40
2018-09-25T20:18:55.153Z,103057.69
2018-09-25T20:21:28.948Z,103059.12
2018-09-25T20:24:02.910Z,103056.61
2018-09-25T20:26:38.050Z,103048.20
2018-09-25T20:29:12.190Z,103039.48
2018-09-25T20:31:46.213Z,103037.20
2018-09-25T20:34:20.062Z,103026.41
2018-09-25T20:36:53.939Z,103018.59
2018-09-25T20:39:27.857Z,103013.24
2018-09-25T20:42:01.664Z,103014.34
2018-09-25T20:44:35.426Z,103011.62
2018-09-25T20:47:09.397Z,103004.43
2018-09-25T20:49:44.227Z,102993.41
2018-09-25T20:52:18.192Z,102995.37
2018-09-25T20:54:52.702Z,102993.90
2018-09-25T20:57:26.475Z,102993.56
2018-09-25T21:00:00.395Z,102994.17
2018-09-25T21:02:34.354Z,102990.93
2018-09-25T21:05:08.245Z,102989.59
2018-09-25T21:07:42.062Z,102991.91
2018-09-25T21:10:16.083Z,102990.48
2018-09-25T21:12:50.001Z,102982.82
2018-09-25T21:15:24.206Z,103003.66
2018-09-25T21:17:57.913Z,103001.27
2018-09-25T21:20:31.599Z,102999.44
2018-09-25T21:23:05.389Z,103007.47
2018-09-25T21:25:39.165Z,103005.20
2018-09-25T21:28:13.073Z,103002.66
2018-09-25T21:30:47.551Z,102984.86
2018-09-25T21:33:21.499Z,102988.37
2018-09-25T21:35:56.372Z,102975.27
2018-09-25T21:38:30.016Z,102973.34
2018-09-25T21:41:03.902Z,102972.37
2018-09-25T21:43:37.508Z,102965.20
2018-09-25T21:46:11.403Z,102967.42
2018-09-25T21:48:45.675Z,102971.58
2018-09-25T21:51:19.600Z,102962.28
2018-09-25T21:53:53.190Z,102964.71
2018-09-25T21:56:28.300Z,102964.22
2018-09-25T21:59:02.161Z,102960.89
2018-09-25T22:01:36.029Z,102954.02
2018-09-25T22:04:09.792Z,102952.88
2018-09-25T22:06:43.627Z,102952.62
2018-09-25T22:09:17.441Z,102959.08
2018-09-25T22:11:51.275Z,102956.65
2018-09-25T22:14:26.307Z,102958.05
2018-09-25T22:17:00.840Z,102966.83
2018-09-25T22:19:35.364Z,102968.95
2018-09-25T22:22:09.271Z,102962.61
2018-09-25T22:24:43.119Z,102960.94
2018-09-25T22:27:17.129Z,102972.37
2018-09-25T22:29:50.833Z,102968.95
2018-09-25T22:32:24.563Z,102971.38
2018-09-25T22:34:58.275Z,102968.48
2018-09-25T22:37:32.037Z,102961.45
2018-09-25T22:40:05.854Z,102961.76
2018-09-25T22:42:39.835Z,102954.59
2018-09-25T22:45:13.630Z,102956.34
2018-09-25T22:47:47.466Z,102953.47
2018-09-25T22:50:21.235Z,102959.11
2018-09-25T22:52:55.654Z,102952.41
2018-09-25T22:55:29.609Z,102955.16
2018-09-25T22:58:03.453Z,102948.87
2018-09-25T23:00:38.022Z,102950.08
2018-09-25T23:03:11.929Z,102944.38
2018-09-25T23:05:45.828Z,102933.62
2018-09-25T23:08:19.750Z,102936.16
2018-09-25T23:10:53.648Z,102931.98
2018-09-25T23:13:27.945Z,102922.84
2018-09-25T23:16:03.365Z,102924.45
2018-09-25T23:18:37.092Z,102925.02
2018-09-25T23:21:10.900Z,102920.73
2018-09-25T23:23:44.702Z,102924.78
2018-09-25T23:26:18.682Z,102931.30
2018-09-25T23:28:52.561Z,102935.34
2018-09-25T23:31:27.267Z,102925.63
2018-09-25T23:34:01.116Z,102920.32
2018-09-25T23:36:35.413Z,102916.73
2018-09-25T23:39:09.154Z,102914.74
2018-09-25T23:41:42.190Z,102907.98
2018-09-25T23:44:16.010Z,102903.12
2018-09-25T23:46:49.802Z,102899.19
2018-09-25T23:49:25.552Z,102894.86
2018-09-25T23:52:03.714Z,102883.21
2018-09-25T23:54:54.076Z,102881.50
2018-09-25T23:58:27.776Z,102883.45
